Cinque Terre — IUTV — position and weather

sailwx.info

Track history (hours):
 
Tides and Currents Weather Stations Pressure Air Temp Water Temp Dewpoint Dewpoint Depression Visibility Wind Speed Wind Dir Waves Ship Positions

Cinque Terre

Last reported at 2016-Jul-29 11:34 UTC. Time now 2016-Jul-30 07:20 UTC.
Position N 40°33' E 014°15'.

Length 15 m; draft 1 m.

Type: Passenger vessel. MMSI: 247208400.

Date/timePositionNaut miles runAvg speedWind from/ knotsBaromVisibWave heightAir tempDewpointWater temp
2016-Jul-29 11:34N 40°33' E 014°15'0 0.0
2016-Jul-29 10:33N 40°33' E 014°15'0 0.0
2016-Jul-29 09:13N 40°33' E 014°15'1 0.9
2016-Jul-29 08:27N 40°33' E 014°16'  
2016-Jul-24 14:33N 40°32' E 014°13'4 3.9
2016-Jul-24 13:33N 40°35' E 014°17'1 0.2
2016-Jul-24 08:07N 40°34' E 014°16'1 1.5
2016-Jul-24 07:33N 40°35' E 014°17'3 0.2
2016-Jul-23 16:29N 40°37' E 014°20'1 0.8
2016-Jul-23 15:33N 40°36' E 014°19'6 5.9
2016-Jul-23 14:33N 40°32' E 014°13'2 1.8
2016-Jul-23 13:33N 40°33' E 014°15'0 0.0
2016-Jul-23 11:33N 40°33' E 014°15'7 7.0
2016-Jul-23 10:33N 40°40' E 014°19'8 7.5
2016-Jul-23 09:33N 40°47' E 014°22'5 5.1
2016-Jul-23 08:33N 40°42' E 014°19'8 7.7
2016-Jul-23 07:32N 40°35' E 014°17'4 3.5
2016-Jul-23 06:19N 40°38' E 014°21'1 0.1
2016-Jul-22 16:12N 40°37' E 014°20'0 0.0
2016-Jul-22 15:32N 40°37' E 014°20'7 6.7
2016-Jul-22 14:32N 40°32' E 014°13'2 2.1
2016-Jul-22 13:33N 40°34' E 014°15'1 0.2
2016-Jul-22 09:13N 40°33' E 014°15'1 0.7
2016-Jul-22 08:18N 40°33' E 014°16'1 1.5
2016-Jul-22 07:32N 40°34' E 014°16'4 0.2
2016-Jul-21 16:15N 40°37' E 014°20'7 3.9
2016-Jul-21 14:32N 40°32' E 014°13'2 2.3
2016-Jul-21 13:30N 40°33' E 014°16'2 0.3
2016-Jul-21 08:29N 40°33' E 014°14'3 2.8
2016-Jul-21 07:30N 40°34' E 014°17'3 0.2
2016-Jul-20 16:27N 40°37' E 014°20'3 2.8
2016-Jul-20 15:16N 40°35' E 014°16'4 4.6
2016-Jul-20 14:21N 40°33' E 014°12'3 0.5
2016-Jul-20 08:03N 40°33' E 014°16'1 2.1
2016-Jul-20 07:30N 40°35' E 014°17'3 0.2
2016-Jul-19 16:23N 40°37' E 014°20'0 0.1
2016-Jul-19 15:33N 40°37' E 014°20'7 6.9
2016-Jul-19 14:28N 40°33' E 014°12'  
Track history (hours):
 
Tides and Currents Weather Stations Pressure Air Temp Water Temp Dewpoint Dewpoint Depression Visibility Wind Speed Wind Dir Waves Ship Positions

Cinque Terre

Last reported at 2016-Jul-29 11:34 UTC. Time now 2016-Jul-30 07:20 UTC.
Position N 40°33' E 014°15'.

Length 15 m; draft 1 m.

Type: Passenger vessel. MMSI: 247208400.

Date/timePositionNaut miles runAvg speedWind from/ knotsBaromVisibWave heightAir tempDewpointWater temp
2016-Jul-29 11:34N 40°33' E 014°15'0 0.0
2016-Jul-29 10:33N 40°33' E 014°15'0 0.0
2016-Jul-29 09:13N 40°33' E 014°15'1 0.9
2016-Jul-29 08:27N 40°33' E 014°16'  
2016-Jul-24 14:33N 40°32' E 014°13'4 3.9
2016-Jul-24 13:33N 40°35' E 014°17'1 0.2
2016-Jul-24 08:07N 40°34' E 014°16'1 1.5
2016-Jul-24 07:33N 40°35' E 014°17'3 0.2
2016-Jul-23 16:29N 40°37' E 014°20'1 0.8
2016-Jul-23 15:33N 40°36' E 014°19'6 5.9
2016-Jul-23 14:33N 40°32' E 014°13'2 1.8
2016-Jul-23 13:33N 40°33' E 014°15'0 0.0
2016-Jul-23 11:33N 40°33' E 014°15'7 7.0
2016-Jul-23 10:33N 40°40' E 014°19'8 7.5
2016-Jul-23 09:33N 40°47' E 014°22'5 5.1
2016-Jul-23 08:33N 40°42' E 014°19'8 7.7
2016-Jul-23 07:32N 40°35' E 014°17'4 3.5
2016-Jul-23 06:19N 40°38' E 014°21'1 0.1
2016-Jul-22 16:12N 40°37' E 014°20'0 0.0
2016-Jul-22 15:32N 40°37' E 014°20'7 6.7
2016-Jul-22 14:32N 40°32' E 014°13'2 2.1
2016-Jul-22 13:33N 40°34' E 014°15'1 0.2
2016-Jul-22 09:13N 40°33' E 014°15'1 0.7
2016-Jul-22 08:18N 40°33' E 014°16'1 1.5
2016-Jul-22 07:32N 40°34' E 014°16'4 0.2
2016-Jul-21 16:15N 40°37' E 014°20'7 3.9
2016-Jul-21 14:32N 40°32' E 014°13'2 2.3
2016-Jul-21 13:30N 40°33' E 014°16'2 0.3
2016-Jul-21 08:29N 40°33' E 014°14'3 2.8
2016-Jul-21 07:30N 40°34' E 014°17'3 0.2
2016-Jul-20 16:27N 40°37' E 014°20'3 2.8
2016-Jul-20 15:16N 40°35' E 014°16'4 4.6
2016-Jul-20 14:21N 40°33' E 014°12'3 0.5
2016-Jul-20 08:03N 40°33' E 014°16'1 2.1
2016-Jul-20 07:30N 40°35' E 014°17'3 0.2
2016-Jul-19 16:23N 40°37' E 014°20'0 0.1
2016-Jul-19 15:33N 40°37' E 014°20'7 6.9
2016-Jul-19 14:28N 40°33' E 014°12'  

Dump ship's entire track history